sensor_id;sensor_type;location;lat;lon;timestamp;temperature;humidity
59847;DHT22;45728;48.788;2.302;2022-08-21T00:00:26;18.70;99.90
59847;DHT22;45728;48.788;2.302;2022-08-21T00:02:58;18.70;99.90
59847;DHT22;45728;48.788;2.302;2022-08-21T00:05:25;18.70;99.90
59847;DHT22;45728;48.788;2.302;2022-08-21T00:07:51;18.70;99.90
59847;DHT22;45728;48.788;2.302;2022-08-21T00:10:17;18.60;99.90
59847;DHT22;45728;48.788;2.302;2022-08-21T00:12:44;18.60;99.90
59847;DHT22;45728;48.788;2.302;2022-08-21T00:15:12;18.60;99.90
59847;DHT22;45728;48.788;2.302;2022-08-21T00:17:38;18.60;99.90
59847;DHT22;45728;48.788;2.302;2022-08-21T00:20:05;18.50;99.90
59847;DHT22;45728;48.788;2.302;2022-08-21T00:22:32;18.40;99.90
59847;DHT22;45728;48.788;2.302;2022-08-21T00:24:58;18.40;99.90
59847;DHT22;45728;48.788;2.302;2022-08-21T00:27:23;18.40;99.90
59847;DHT22;45728;48.788;2.302;2022-08-21T00:29:49;18.30;99.90
59847;DHT22;45728;48.788;2.302;2022-08-21T00:32:22;18.40;99.90
59847;DHT22;45728;48.788;2.302;2022-08-21T00:34:48;18.30;99.90
59847;DHT22;45728;48.788;2.302;2022-08-21T00:37:14;18.30;99.90
59847;DHT22;45728;48.788;2.302;2022-08-21T00:39:40;18.20;99.90
59847;DHT22;45728;48.788;2.302;2022-08-21T00:42:06;18.20;99.90
59847;DHT22;45728;48.788;2.302;2022-08-21T00:44:32;18.20;99.90
59847;DHT22;45728;48.788;2.302;2022-08-21T00:46:58;18.20;99.90
59847;DHT22;45728;48.788;2.302;2022-08-21T00:49:23;18.10;99.90
59847;DHT22;45728;48.788;2.302;2022-08-21T00:51:51;18.00;99.90
59847;DHT22;45728;48.788;2.302;2022-08-21T00:54:18;18.00;99.90
59847;DHT22;45728;48.788;2.302;2022-08-21T00:56:48;18.00;99.90
59847;DHT22;45728;48.788;2.302;2022-08-21T00:59:16;18.00;99.90
59847;DHT22;45728;48.788;2.302;2022-08-21T01:01:42;18.00;99.90
59847;DHT22;45728;48.788;2.302;2022-08-21T01:04:08;18.00;99.90
59847;DHT22;45728;48.788;2.302;2022-08-21T01:06:34;18.00;99.90
59847;DHT22;45728;48.788;2.302;2022-08-21T01:09:00;18.00;99.90
59847;DHT22;45728;48.788;2.302;2022-08-21T01:11:26;17.90;99.90
59847;DHT22;45728;48.788;2.302;2022-08-21T01:13:52;17.80;99.90
59847;DHT22;45728;48.788;2.302;2022-08-21T01:16:19;17.70;99.90
59847;DHT22;45728;48.788;2.302;2022-08-21T01:18:45;17.60;99.90
59847;DHT22;45728;48.788;2.302;2022-08-21T01:21:14;17.70;99.90
59847;DHT22;45728;48.788;2.302;2022-08-21T01:23:42;17.80;99.90
59847;DHT22;45728;48.788;2.302;2022-08-21T01:26:08;17.70;99.90
59847;DHT22;45728;48.788;2.302;2022-08-21T01:28:38;17.70;99.90
59847;DHT22;45728;48.788;2.302;2022-08-21T01:31:05;17.70;99.90
59847;DHT22;45728;48.788;2.302;2022-08-21T01:33:31;17.70;99.90
59847;DHT22;45728;48.788;2.302;2022-08-21T01:35:57;17.60;99.90
59847;DHT22;45728;48.788;2.302;2022-08-21T01:38:23;17.50;99.90
59847;DHT22;45728;48.788;2.302;2022-08-21T01:40:50;17.50;99.90
59847;DHT22;45728;48.788;2.302;2022-08-21T01:43:15;17.50;99.90
59847;DHT22;45728;48.788;2.302;2022-08-21T01:45:41;17.50;99.90
59847;DHT22;45728;48.788;2.302;2022-08-21T01:48:07;17.50;99.90
59847;DHT22;45728;48.788;2.302;2022-08-21T01:50:33;17.50;99.90
59847;DHT22;45728;48.788;2.302;2022-08-21T01:52:59;17.50;99.90
59847;DHT22;45728;48.788;2.302;2022-08-21T01:55:25;17.50;99.90
59847;DHT22;45728;48.788;2.302;2022-08-21T01:57:51;17.40;99.90
59847;DHT22;45728;48.788;2.302;2022-08-21T02:00:18;17.40;99.90
59847;DHT22;45728;48.788;2.302;2022-08-21T02:02:45;17.40;99.90
59847;DHT22;45728;48.788;2.302;2022-08-21T02:05:11;17.30;99.90
59847;DHT22;45728;48.788;2.302;2022-08-21T02:07:43;17.30;99.90
59847;DHT22;45728;48.788;2.302;2022-08-21T02:10:10;17.30;99.90
59847;DHT22;45728;48.788;2.302;2022-08-21T02:12:36;17.40;99.90
59847;DHT22;45728;48.788;2.302;2022-08-21T02:15:03;17.30;99.90
59847;DHT22;45728;48.788;2.302;2022-08-21T02:17:39;17.30;99.90
59847;DHT22;45728;48.788;2.302;2022-08-21T02:20:06;17.30;99.90
59847;DHT22;45728;48.788;2.302;2022-08-21T02:22:32;17.20;99.90
59847;DHT22;45728;48.788;2.302;2022-08-21T02:24:57;17.30;99.90
59847;DHT22;45728;48.788;2.302;2022-08-21T02:27:24;17.10;99.90
59847;DHT22;45728;48.788;2.302;2022-08-21T02:29:50;17.10;99.90
59847;DHT22;45728;48.788;2.302;2022-08-21T02:32:16;17.00;99.90
59847;DHT22;45728;48.788;2.302;2022-08-21T02:34:42;17.00;99.90
59847;DHT22;45728;48.788;2.302;2022-08-21T02:37:08;17.00;99.90
59847;DHT22;45728;48.788;2.302;2022-08-21T02:39:34;16.90;99.90
59847;DHT22;45728;48.788;2.302;2022-08-21T02:42:00;16.90;99.90
59847;DHT22;45728;48.788;2.302;2022-08-21T02:44:26;17.00;99.90
59847;DHT22;45728;48.788;2.302;2022-08-21T02:46:51;17.00;99.90
59847;DHT22;45728;48.788;2.302;2022-08-21T02:49:17;17.00;99.90
59847;DHT22;45728;48.788;2.302;2022-08-21T02:51:43;16.90;99.90
59847;DHT22;45728;48.788;2.302;2022-08-21T02:54:09;16.90;99.90
59847;DHT22;45728;48.788;2.302;2022-08-21T02:56:35;16.80;99.90
59847;DHT22;45728;48.788;2.302;2022-08-21T02:59:01;16.70;99.90
59847;DHT22;45728;48.788;2.302;2022-08-21T03:01:26;16.80;99.90
59847;DHT22;45728;48.788;2.302;2022-08-21T03:03:52;16.90;99.90
59847;DHT22;45728;48.788;2.302;2022-08-21T03:06:19;16.80;99.90
59847;DHT22;45728;48.788;2.302;2022-08-21T03:08:46;16.80;99.90
59847;DHT22;45728;48.788;2.302;2022-08-21T03:11:13;16.70;99.90
59847;DHT22;45728;48.788;2.302;2022-08-21T03:13:39;16.70;99.90
59847;DHT22;45728;48.788;2.302;2022-08-21T03:16:05;16.70;99.90
59847;DHT22;45728;48.788;2.302;2022-08-21T03:18:31;16.70;99.90
59847;DHT22;45728;48.788;2.302;2022-08-21T03:20:57;16.70;99.90
59847;DHT22;45728;48.788;2.302;2022-08-21T03:23:23;16.60;99.90
59847;DHT22;45728;48.788;2.302;2022-08-21T03:25:49;16.60;99.90
59847;DHT22;45728;48.788;2.302;2022-08-21T03:28:18;16.50;99.90
59847;DHT22;45728;48.788;2.302;2022-08-21T03:30:45;16.50;99.90
59847;DHT22;45728;48.788;2.302;2022-08-21T03:33:12;16.50;99.90
59847;DHT22;45728;48.788;2.302;2022-08-21T03:35:38;16.60;99.90
59847;DHT22;45728;48.788;2.302;2022-08-21T03:38:04;16.50;99.90
59847;DHT22;45728;48.788;2.302;2022-08-21T03:40:30;16.60;99.90
59847;DHT22;45728;48.788;2.302;2022-08-21T03:42:56;16.50;99.90
59847;DHT22;45728;48.788;2.302;2022-08-21T03:45:22;16.50;99.90
59847;DHT22;45728;48.788;2.302;2022-08-21T03:47:55;16.50;99.90
59847;DHT22;45728;48.788;2.302;2022-08-21T03:50:22;16.50;99.90
59847;DHT22;45728;48.788;2.302;2022-08-21T03:52:48;16.50;99.90
59847;DHT22;45728;48.788;2.302;2022-08-21T03:55:14;16.60;99.90
59847;DHT22;45728;48.788;2.302;2022-08-21T03:57:40;16.60;99.90
59847;DHT22;45728;48.788;2.302;2022-08-21T04:00:07;16.60;99.90
59847;DHT22;45728;48.788;2.302;2022-08-21T04:02:35;16.60;99.90
59847;DHT22;45728;48.788;2.302;2022-08-21T04:05:01;16.50;99.90
59847;DHT22;45728;48.788;2.302;2022-08-21T04:07:27;16.50;99.90
59847;DHT22;45728;48.788;2.302;2022-08-21T04:09:53;16.40;99.90
59847;DHT22;45728;48.788;2.302;2022-08-21T04:12:19;16.40;99.90
59847;DHT22;45728;48.788;2.302;2022-08-21T04:14:45;16.30;99.90
59847;DHT22;45728;48.788;2.302;2022-08-21T04:17:11;16.30;99.90
59847;DHT22;45728;48.788;2.302;2022-08-21T04:19:37;16.30;99.90
59847;DHT22;45728;48.788;2.302;2022-08-21T04:22:03;16.40;99.90
59847;DHT22;45728;48.788;2.302;2022-08-21T04:24:29;16.40;99.90
59847;DHT22;45728;48.788;2.302;2022-08-21T04:26:55;16.30;99.90
59847;DHT22;45728;48.788;2.302;2022-08-21T04:29:21;16.30;99.90
59847;DHT22;45728;48.788;2.302;2022-08-21T04:31:47;16.20;99.90
59847;DHT22;45728;48.788;2.302;2022-08-21T04:34:13;16.20;99.90
59847;DHT22;45728;48.788;2.302;2022-08-21T04:36:39;16.30;99.90
59847;DHT22;45728;48.788;2.302;2022-08-21T04:39:05;16.30;99.90
59847;DHT22;45728;48.788;2.302;2022-08-21T04:41:31;16.30;99.90
59847;DHT22;45728;48.788;2.302;2022-08-21T04:43:57;16.30;99.90
59847;DHT22;45728;48.788;2.302;2022-08-21T04:46:23;16.30;99.90
59847;DHT22;45728;48.788;2.302;2022-08-21T04:48:49;16.40;99.90
59847;DHT22;45728;48.788;2.302;2022-08-21T04:51:16;16.40;99.90
59847;DHT22;45728;48.788;2.302;2022-08-21T04:53:44;16.40;99.90
59847;DHT22;45728;48.788;2.302;2022-08-21T04:56:24;16.30;99.90
59847;DHT22;45728;48.788;2.302;2022-08-21T04:58:52;16.20;99.90
59847;DHT22;45728;48.788;2.302;2022-08-21T05:01:20;16.30;99.90
59847;DHT22;45728;48.788;2.302;2022-08-21T05:03:47;16.30;99.90
59847;DHT22;45728;48.788;2.302;2022-08-21T05:06:14;16.30;99.90
59847;DHT22;45728;48.788;2.302;2022-08-21T05:08:40;16.30;99.90
59847;DHT22;45728;48.788;2.302;2022-08-21T05:11:08;16.30;99.90
59847;DHT22;45728;48.788;2.302;2022-08-21T05:13:33;16.30;99.90
59847;DHT22;45728;48.788;2.302;2022-08-21T05:16:00;16.40;99.90
59847;DHT22;45728;48.788;2.302;2022-08-21T05:18:26;16.40;99.90
59847;DHT22;45728;48.788;2.302;2022-08-21T05:20:52;16.40;99.90
59847;DHT22;45728;48.788;2.302;2022-08-21T05:23:18;16.40;99.90
59847;DHT22;45728;48.788;2.302;2022-08-21T05:25:44;16.40;99.90
59847;DHT22;45728;48.788;2.302;2022-08-21T05:28:09;16.40;99.90
59847;DHT22;45728;48.788;2.302;2022-08-21T05:30:36;16.30;99.90
59847;DHT22;45728;48.788;2.302;2022-08-21T05:33:03;16.40;99.90
59847;DHT22;45728;48.788;2.302;2022-08-21T05:35:29;16.40;99.90
59847;DHT22;45728;48.788;2.302;2022-08-21T05:37:55;16.30;99.90
59847;DHT22;45728;48.788;2.302;2022-08-21T05:40:21;16.30;99.90
59847;DHT22;45728;48.788;2.302;2022-08-21T05:42:47;16.20;99.90
59847;DHT22;45728;48.788;2.302;2022-08-21T05:45:13;16.30;99.90
59847;DHT22;45728;48.788;2.302;2022-08-21T05:47:39;16.40;99.90
59847;DHT22;45728;48.788;2.302;2022-08-21T05:50:05;16.50;99.90
59847;DHT22;45728;48.788;2.302;2022-08-21T05:52:31;16.50;99.90
59847;DHT22;45728;48.788;2.302;2022-08-21T05:54:57;16.50;99.90
59847;DHT22;45728;48.788;2.302;2022-08-21T05:57:23;16.50;99.90
59847;DHT22;45728;48.788;2.302;2022-08-21T05:59:50;16.40;99.90
59847;DHT22;45728;48.788;2.302;2022-08-21T06:02:20;16.40;99.90
59847;DHT22;45728;48.788;2.302;2022-08-21T06:04:46;16.40;99.90
59847;DHT22;45728;48.788;2.302;2022-08-21T06:07:12;16.50;99.90
59847;DHT22;45728;48.788;2.302;2022-08-21T06:09:38;16.50;99.90
59847;DHT22;45728;48.788;2.302;2022-08-21T06:12:04;16.50;99.90
59847;DHT22;45728;48.788;2.302;2022-08-21T06:14:31;16.50;99.90
59847;DHT22;45728;48.788;2.302;2022-08-21T06:17:07;16.60;99.90
59847;DHT22;45728;48.788;2.302;2022-08-21T06:19:33;16.50;99.90
59847;DHT22;45728;48.788;2.302;2022-08-21T06:21:59;16.50;99.90
59847;DHT22;45728;48.788;2.302;2022-08-21T06:24:25;16.60;99.90
59847;DHT22;45728;48.788;2.302;2022-08-21T06:26:51;16.70;99.90
59847;DHT22;45728;48.788;2.302;2022-08-21T06:29:17;16.80;99.90
59847;DHT22;45728;48.788;2.302;2022-08-21T06:31:43;16.90;99.90
59847;DHT22;45728;48.788;2.302;2022-08-21T06:34:09;17.00;99.90
59847;DHT22;45728;48.788;2.302;2022-08-21T06:36:36;17.10;99.90
59847;DHT22;45728;48.788;2.302;2022-08-21T06:39:02;17.20;99.90
59847;DHT22;45728;48.788;2.302;2022-08-21T06:41:28;17.40;99.90
59847;DHT22;45728;48.788;2.302;2022-08-21T06:43:54;17.50;99.90
59847;DHT22;45728;48.788;2.302;2022-08-21T06:46:20;17.60;99.90
59847;DHT22;45728;48.788;2.302;2022-08-21T06:48:46;17.70;99.90
59847;DHT22;45728;48.788;2.302;2022-08-21T06:51:12;17.90;99.90
59847;DHT22;45728;48.788;2.302;2022-08-21T06:53:38;18.00;99.90
59847;DHT22;45728;48.788;2.302;2022-08-21T06:56:04;18.20;99.90
59847;DHT22;45728;48.788;2.302;2022-08-21T06:58:30;18.30;99.90
59847;DHT22;45728;48.788;2.302;2022-08-21T07:00:56;18.50;99.90
59847;DHT22;45728;48.788;2.302;2022-08-21T07:03:27;18.60;99.90
59847;DHT22;45728;48.788;2.302;2022-08-21T07:05:53;18.80;99.90
59847;DHT22;45728;48.788;2.302;2022-08-21T07:08:19;18.90;99.90
59847;DHT22;45728;48.788;2.302;2022-08-21T07:10:46;18.90;99.90
59847;DHT22;45728;48.788;2.302;2022-08-21T07:13:12;18.90;99.90
59847;DHT22;45728;48.788;2.302;2022-08-21T07:15:38;19.00;99.90
59847;DHT22;45728;48.788;2.302;2022-08-21T07:18:04;19.00;99.90
59847;DHT22;45728;48.788;2.302;2022-08-21T07:20:30;19.00;99.90
59847;DHT22;45728;48.788;2.302;2022-08-21T07:22:57;19.00;99.90
59847;DHT22;45728;48.788;2.302;2022-08-21T07:25:24;19.10;99.90
59847;DHT22;45728;48.788;2.302;2022-08-21T07:27:50;19.10;99.90
59847;DHT22;45728;48.788;2.302;2022-08-21T07:30:15;19.20;99.90
59847;DHT22;45728;48.788;2.302;2022-08-21T07:32:41;19.30;99.90
59847;DHT22;45728;48.788;2.302;2022-08-21T07:35:07;19.30;99.90
59847;DHT22;45728;48.788;2.302;2022-08-21T07:37:33;19.40;99.90
59847;DHT22;45728;48.788;2.302;2022-08-21T07:39:59;19.40;99.90
59847;DHT22;45728;48.788;2.302;2022-08-21T07:42:25;19.50;99.90
59847;DHT22;45728;48.788;2.302;2022-08-21T07:44:51;19.60;99.90
59847;DHT22;45728;48.788;2.302;2022-08-21T07:47:16;19.70;99.90
59847;DHT22;45728;48.788;2.302;2022-08-21T07:49:42;19.80;99.90
59847;DHT22;45728;48.788;2.302;2022-08-21T07:52:08;19.90;99.90
59847;DHT22;45728;48.788;2.302;2022-08-21T07:54:34;20.00;99.90
59847;DHT22;45728;48.788;2.302;2022-08-21T07:57:00;20.00;99.90
59847;DHT22;45728;48.788;2.302;2022-08-21T07:59:27;20.10;99.90
59847;DHT22;45728;48.788;2.302;2022-08-21T08:01:53;20.30;99.90
59847;DHT22;45728;48.788;2.302;2022-08-21T08:04:18;20.40;99.90
59847;DHT22;45728;48.788;2.302;2022-08-21T08:06:44;20.50;99.90
59847;DHT22;45728;48.788;2.302;2022-08-21T08:09:11;20.60;99.90
59847;DHT22;45728;48.788;2.302;2022-08-21T08:11:37;20.80;99.90
59847;DHT22;45728;48.788;2.302;2022-08-21T08:14:04;20.90;99.90
59847;DHT22;45728;48.788;2.302;2022-08-21T08:16:30;21.00;99.90
59847;DHT22;45728;48.788;2.302;2022-08-21T08:18:56;21.00;99.90
59847;DHT22;45728;48.788;2.302;2022-08-21T08:21:22;21.10;99.90
59847;DHT22;45728;48.788;2.302;2022-08-21T08:23:47;21.20;99.90
59847;DHT22;45728;48.788;2.302;2022-08-21T08:26:13;21.30;99.90
59847;DHT22;45728;48.788;2.302;2022-08-21T08:28:41;21.30;99.90
59847;DHT22;45728;48.788;2.302;2022-08-21T08:31:07;21.40;99.90
59847;DHT22;45728;48.788;2.302;2022-08-21T08:33:33;21.40;99.90
59847;DHT22;45728;48.788;2.302;2022-08-21T08:35:59;21.50;99.90
59847;DHT22;45728;48.788;2.302;2022-08-21T08:38:25;21.60;99.90
59847;DHT22;45728;48.788;2.302;2022-08-21T08:43:37;21.60;99.90
59847;DHT22;45728;48.788;2.302;2022-08-21T08:46:04;21.70;99.90
59847;DHT22;45728;48.788;2.302;2022-08-21T08:51:00;21.60;99.90
59847;DHT22;45728;48.788;2.302;2022-08-21T08:53:30;21.70;99.90
59847;DHT22;45728;48.788;2.302;2022-08-21T08:55:57;21.80;99.90
59847;DHT22;45728;48.788;2.302;2022-08-21T08:58:26;21.90;99.90
59847;DHT22;45728;48.788;2.302;2022-08-21T09:00:53;22.10;99.90
59847;DHT22;45728;48.788;2.302;2022-08-21T09:03:19;22.20;99.90
59847;DHT22;45728;48.788;2.302;2022-08-21T09:05:47;22.20;99.90
59847;DHT22;45728;48.788;2.302;2022-08-21T09:23:58;22.90;99.90
59847;DHT22;45728;48.788;2.302;2022-08-21T09:26:36;23.00;99.90
59847;DHT22;45728;48.788;2.302;2022-08-21T09:29:05;23.10;99.90
59847;DHT22;45728;48.788;2.302;2022-08-21T09:31:33;23.20;99.90
59847;DHT22;45728;48.788;2.302;2022-08-21T09:34:00;23.20;99.90
59847;DHT22;45728;48.788;2.302;2022-08-21T09:36:47;23.10;99.90
59847;DHT22;45728;48.788;2.302;2022-08-21T09:39:21;23.30;99.90
59847;DHT22;45728;48.788;2.302;2022-08-21T09:41:54;23.40;99.90
59847;DHT22;45728;48.788;2.302;2022-08-21T09:44:24;23.50;99.90
59847;DHT22;45728;48.788;2.302;2022-08-21T09:46:51;23.50;99.90
59847;DHT22;45728;48.788;2.302;2022-08-21T09:49:26;23.70;99.90
59847;DHT22;45728;48.788;2.302;2022-08-21T09:51:52;23.90;99.90
59847;DHT22;45728;48.788;2.302;2022-08-21T09:54:29;24.10;99.90
59847;DHT22;45728;48.788;2.302;2022-08-21T09:57:29;24.20;99.90
59847;DHT22;45728;48.788;2.302;2022-08-21T10:00:18;24.30;99.90
59847;DHT22;45728;48.788;2.302;2022-08-21T10:02:44;24.70;99.90
59847;DHT22;45728;48.788;2.302;2022-08-21T10:05:24;24.90;99.90
59847;DHT22;45728;48.788;2.302;2022-08-21T10:07:50;25.00;99.90
59847;DHT22;45728;48.788;2.302;2022-08-21T10:10:18;25.20;99.90
59847;DHT22;45728;48.788;2.302;2022-08-21T10:12:57;25.00;99.90
59847;DHT22;45728;48.788;2.302;2022-08-21T10:18:07;25.10;99.90
59847;DHT22;45728;48.788;2.302;2022-08-21T10:25:32;25.30;99.90
59847;DHT22;45728;48.788;2.302;2022-08-21T10:28:01;25.20;99.90
59847;DHT22;45728;48.788;2.302;2022-08-21T10:30:34;25.00;99.90
59847;DHT22;45728;48.788;2.302;2022-08-21T10:35:29;24.80;99.90
59847;DHT22;45728;48.788;2.302;2022-08-21T10:45:38;24.80;99.90
59847;DHT22;45728;48.788;2.302;2022-08-21T10:48:07;24.80;99.90
59847;DHT22;45728;48.788;2.302;2022-08-21T10:50:50;24.80;99.40
59847;DHT22;45728;48.788;2.302;2022-08-21T10:53:28;24.70;99.30
59847;DHT22;45728;48.788;2.302;2022-08-21T10:58:56;24.90;99.50
59847;DHT22;45728;48.788;2.302;2022-08-21T11:01:26;25.00;99.40
59847;DHT22;45728;48.788;2.302;2022-08-21T11:04:07;25.30;99.00
59847;DHT22;45728;48.788;2.302;2022-08-21T11:06:34;25.40;99.00
59847;DHT22;45728;48.788;2.302;2022-08-21T11:09:13;25.50;98.90
59847;DHT22;45728;48.788;2.302;2022-08-21T11:12:03;25.50;98.90
59847;DHT22;45728;48.788;2.302;2022-08-21T11:14:39;25.50;99.20
59847;DHT22;45728;48.788;2.302;2022-08-21T11:17:11;25.50;98.90
59847;DHT22;45728;48.788;2.302;2022-08-21T11:19:52;25.40;98.70
59847;DHT22;45728;48.788;2.302;2022-08-21T11:22:23;25.10;99.00
59847;DHT22;45728;48.788;2.302;2022-08-21T11:27:44;24.90;99.10
59847;DHT22;45728;48.788;2.302;2022-08-21T11:30:11;25.10;99.30
59847;DHT22;45728;48.788;2.302;2022-08-21T11:35:28;26.00;98.80
59847;DHT22;45728;48.788;2.302;2022-08-21T11:40:26;26.50;98.00
59847;DHT22;45728;48.788;2.302;2022-08-21T11:45:41;26.40;98.30
59847;DHT22;45728;48.788;2.302;2022-08-21T11:48:17;26.70;98.20
59847;DHT22;45728;48.788;2.302;2022-08-21T11:50:44;27.00;97.70
59847;DHT22;45728;48.788;2.302;2022-08-21T11:55:44;27.60;97.70
59847;DHT22;45728;48.788;2.302;2022-08-21T11:58:16;27.60;97.30
59847;DHT22;45728;48.788;2.302;2022-08-21T12:00:44;27.70;97.20
59847;DHT22;45728;48.788;2.302;2022-08-21T12:03:17;27.20;97.70
59847;DHT22;45728;48.788;2.302;2022-08-21T12:08:46;27.10;97.70
59847;DHT22;45728;48.788;2.302;2022-08-21T12:11:23;26.90;98.40
59847;DHT22;45728;48.788;2.302;2022-08-21T12:14:00;27.00;98.40
59847;DHT22;45728;48.788;2.302;2022-08-21T12:16:37;27.50;97.90
59847;DHT22;45728;48.788;2.302;2022-08-21T12:21:29;27.50;97.70
59847;DHT22;45728;48.788;2.302;2022-08-21T12:26:49;27.60;97.70
59847;DHT22;45728;48.788;2.302;2022-08-21T12:29:21;28.10;97.60
59847;DHT22;45728;48.788;2.302;2022-08-21T12:31:56;27.90;97.40
59847;DHT22;45728;48.788;2.302;2022-08-21T12:34:24;27.60;97.80
59847;DHT22;45728;48.788;2.302;2022-08-21T12:36:57;27.00;98.30
59847;DHT22;45728;48.788;2.302;2022-08-21T12:39:25;27.00;98.50
59847;DHT22;45728;48.788;2.302;2022-08-21T12:41:55;26.80;98.40
59847;DHT22;45728;48.788;2.302;2022-08-21T12:44:22;26.30;99.00
59847;DHT22;45728;48.788;2.302;2022-08-21T12:46:51;26.60;99.20
59847;DHT22;45728;48.788;2.302;2022-08-21T12:49:35;26.50;98.90
59847;DHT22;45728;48.788;2.302;2022-08-21T12:54:28;26.60;98.60
59847;DHT22;45728;48.788;2.302;2022-08-21T12:56:55;26.80;98.60
59847;DHT22;45728;48.788;2.302;2022-08-21T12:59:22;26.90;98.50
59847;DHT22;45728;48.788;2.302;2022-08-21T13:01:48;26.90;98.20
59847;DHT22;45728;48.788;2.302;2022-08-21T13:04:17;26.80;98.40
59847;DHT22;45728;48.788;2.302;2022-08-21T13:06:47;26.80;98.50
59847;DHT22;45728;48.788;2.302;2022-08-21T13:11:59;27.10;98.10
59847;DHT22;45728;48.788;2.302;2022-08-21T13:14:28;27.00;98.00
59847;DHT22;45728;48.788;2.302;2022-08-21T13:16:55;27.10;97.80
59847;DHT22;45728;48.788;2.302;2022-08-21T13:19:22;27.20;97.80
59847;DHT22;45728;48.788;2.302;2022-08-21T13:21:47;27.40;97.60
59847;DHT22;45728;48.788;2.302;2022-08-21T13:24:20;27.40;97.40
59847;DHT22;45728;48.788;2.302;2022-08-21T13:26:48;27.50;97.10
59847;DHT22;45728;48.788;2.302;2022-08-21T13:29:15;27.20;97.30
59847;DHT22;45728;48.788;2.302;2022-08-21T13:31:51;27.30;97.10
59847;DHT22;45728;48.788;2.302;2022-08-21T13:34:20;27.30;97.20
59847;DHT22;45728;48.788;2.302;2022-08-21T13:36:46;27.30;97.00
59847;DHT22;45728;48.788;2.302;2022-08-21T13:39:14;27.10;97.20
59847;DHT22;45728;48.788;2.302;2022-08-21T13:41:43;27.10;97.50
59847;DHT22;45728;48.788;2.302;2022-08-21T13:44:22;26.90;96.80
59847;DHT22;45728;48.788;2.302;2022-08-21T13:46:52;26.70;97.30
59847;DHT22;45728;48.788;2.302;2022-08-21T13:49:19;26.70;97.40
59847;DHT22;45728;48.788;2.302;2022-08-21T13:51:46;27.00;97.20
59847;DHT22;45728;48.788;2.302;2022-08-21T13:54:16;27.10;96.90
59847;DHT22;45728;48.788;2.302;2022-08-21T13:57:19;27.20;96.80
59847;DHT22;45728;48.788;2.302;2022-08-21T13:59:45;27.50;96.50
59847;DHT22;45728;48.788;2.302;2022-08-21T14:02:15;27.80;96.40
59847;DHT22;45728;48.788;2.302;2022-08-21T14:07:17;27.30;96.30
59847;DHT22;45728;48.788;2.302;2022-08-21T14:09:44;27.20;96.20
59847;DHT22;45728;48.788;2.302;2022-08-21T14:12:24;26.90;96.50
59847;DHT22;45728;48.788;2.302;2022-08-21T14:14:52;26.90;96.60
59847;DHT22;45728;48.788;2.302;2022-08-21T14:17:27;26.90;96.60
59847;DHT22;45728;48.788;2.302;2022-08-21T14:19:53;26.80;96.70
59847;DHT22;45728;48.788;2.302;2022-08-21T14:24:48;26.80;96.60
59847;DHT22;45728;48.788;2.302;2022-08-21T14:27:15;26.70;96.70
59847;DHT22;45728;48.788;2.302;2022-08-21T14:29:42;26.70;96.40
59847;DHT22;45728;48.788;2.302;2022-08-21T14:32:26;26.80;96.60
59847;DHT22;45728;48.788;2.302;2022-08-21T14:34:55;26.90;96.30
59847;DHT22;45728;48.788;2.302;2022-08-21T14:37:22;26.60;96.50
59847;DHT22;45728;48.788;2.302;2022-08-21T14:39:47;26.50;96.60
59847;DHT22;45728;48.788;2.302;2022-08-21T14:42:13;26.40;96.60
59847;DHT22;45728;48.788;2.302;2022-08-21T14:44:39;26.40;96.90
59847;DHT22;45728;48.788;2.302;2022-08-21T14:47:05;26.40;96.60
59847;DHT22;45728;48.788;2.302;2022-08-21T14:49:31;26.40;97.00
59847;DHT22;45728;48.788;2.302;2022-08-21T14:51:57;26.40;97.00
59847;DHT22;45728;48.788;2.302;2022-08-21T14:54:24;26.60;96.80
59847;DHT22;45728;48.788;2.302;2022-08-21T14:56:50;26.60;97.00
59847;DHT22;45728;48.788;2.302;2022-08-21T14:59:16;26.70;96.60
59847;DHT22;45728;48.788;2.302;2022-08-21T15:01:42;26.60;97.10
59847;DHT22;45728;48.788;2.302;2022-08-21T15:04:08;26.60;96.70
59847;DHT22;45728;48.788;2.302;2022-08-21T15:06:34;26.60;96.60
59847;DHT22;45728;48.788;2.302;2022-08-21T15:09:00;26.60;96.60
59847;DHT22;45728;48.788;2.302;2022-08-21T15:11:28;26.60;96.50
59847;DHT22;45728;48.788;2.302;2022-08-21T15:13:55;26.70;96.50
59847;DHT22;45728;48.788;2.302;2022-08-21T15:16:22;26.80;96.70
59847;DHT22;45728;48.788;2.302;2022-08-21T15:18:48;26.90;96.20
59847;DHT22;45728;48.788;2.302;2022-08-21T15:21:14;26.60;96.10
59847;DHT22;45728;48.788;2.302;2022-08-21T15:23:40;26.60;95.70
59847;DHT22;45728;48.788;2.302;2022-08-21T15:26:06;26.30;95.70
59847;DHT22;45728;48.788;2.302;2022-08-21T15:28:33;26.50;95.90
59847;DHT22;45728;48.788;2.302;2022-08-21T15:31:00;26.50;95.60
59847;DHT22;45728;48.788;2.302;2022-08-21T15:33:26;26.40;95.70
59847;DHT22;45728;48.788;2.302;2022-08-21T15:35:52;26.50;96.00
59847;DHT22;45728;48.788;2.302;2022-08-21T15:38:18;26.60;95.50
59847;DHT22;45728;48.788;2.302;2022-08-21T15:40:44;26.70;95.40
59847;DHT22;45728;48.788;2.302;2022-08-21T15:43:24;26.80;95.30
59847;DHT22;45728;48.788;2.302;2022-08-21T15:45:51;26.80;94.90
59847;DHT22;45728;48.788;2.302;2022-08-21T15:48:17;27.00;94.60
59847;DHT22;45728;48.788;2.302;2022-08-21T15:50:43;26.80;94.70
59847;DHT22;45728;48.788;2.302;2022-08-21T15:53:09;26.60;94.70
59847;DHT22;45728;48.788;2.302;2022-08-21T15:55:35;26.40;94.30
59847;DHT22;45728;48.788;2.302;2022-08-21T15:58:00;26.20;94.20
59847;DHT22;45728;48.788;2.302;2022-08-21T16:00:26;25.90;94.20
59847;DHT22;45728;48.788;2.302;2022-08-21T16:02:54;25.80;94.10
59847;DHT22;45728;48.788;2.302;2022-08-21T16:05:21;25.60;94.20
59847;DHT22;45728;48.788;2.302;2022-08-21T16:07:47;25.70;94.30
59847;DHT22;45728;48.788;2.302;2022-08-21T16:10:14;25.70;94.30
59847;DHT22;45728;48.788;2.302;2022-08-21T16:12:42;25.80;94.30
59847;DHT22;45728;48.788;2.302;2022-08-21T16:15:10;25.80;94.10
59847;DHT22;45728;48.788;2.302;2022-08-21T16:17:37;25.80;94.30
59847;DHT22;45728;48.788;2.302;2022-08-21T16:20:05;25.90;94.40
59847;DHT22;45728;48.788;2.302;2022-08-21T16:22:31;25.80;94.00
59847;DHT22;45728;48.788;2.302;2022-08-21T16:24:57;25.80;94.30
59847;DHT22;45728;48.788;2.302;2022-08-21T16:27:23;25.70;94.20
59847;DHT22;45728;48.788;2.302;2022-08-21T16:29:49;25.60;94.20
59847;DHT22;45728;48.788;2.302;2022-08-21T16:32:15;25.60;94.30
59847;DHT22;45728;48.788;2.302;2022-08-21T16:34:44;25.60;94.40
59847;DHT22;45728;48.788;2.302;2022-08-21T16:37:10;25.50;94.40
59847;DHT22;45728;48.788;2.302;2022-08-21T16:39:36;25.50;94.50
59847;DHT22;45728;48.788;2.302;2022-08-21T16:42:02;25.50;94.60
59847;DHT22;45728;48.788;2.302;2022-08-21T16:44:28;25.40;94.80
59847;DHT22;45728;48.788;2.302;2022-08-21T16:46:54;25.40;95.00